Time;durP1;ratioP1;P1;durP2;ratioP2;P2;SDS_P1;SDS_P2;PMS_P1;PMS_P2;Temp;Humidity;BMP_temperature;BMP_pressure;BME280_temperature;BME280_humidity;BME280_pressure;Samples;Min_cycle;Max_cycle;Signal;HPM_P1;HPM_P2
2022/12/28 09:17:49;;;;;;;7.57;4.70;;;;;;;7.14;100.00;101052.78;5294654;27;20393;-70
2022/12/28 09:20:20;;;;;;;9.07;4.50;;;;;;;7.17;100.00;101061.41;5293758;28;20138;-72
2022/12/28 09:22:52;;;;;;;9.37;4.17;;;;;;;7.12;100.00;101053.78;5293127;28;20514;-70
2022/12/28 09:25:23;;;;;;;8.53;3.87;;;;;;;7.21;100.00;101057.75;5294690;28;20028;-70
2022/12/28 09:27:54;;;;;;;11.37;4.47;;;;;;;7.16;100.00;101044.91;5293517;28;20035;-68
2022/12/28 09:30:26;;;;;;;8.70;4.23;;;;;;;7.20;100.00;101046.47;5294341;28;20025;-68
2022/12/28 09:35:47;;;;;;;7.43;3.13;;;;;;;7.32;100.00;101057.28;5293126;28;20040;-68
2022/12/28 09:38:18;;;;;;;8.03;3.33;;;;;;;7.37;100.00;101055.31;5290188;28;20024;-67
2022/12/28 09:40:49;;;;;;;6.93;3.23;;;;;;;7.41;100.00;101058.66;5292783;28;20065;-68
2022/12/28 09:43:21;;;;;;;5.17;2.73;;;;;;;7.44;100.00;101059.38;5293848;28;20032;-68
2022/12/28 09:45:53;;;;;;;4.60;2.40;;;;;;;7.49;100.00;101067.84;5292567;28;20555;-67
2022/12/28 09:48:26;;;;;;;8.77;3.70;;;;;;;7.50;100.00;101059.09;5291753;28;20030;-67
2022/12/28 09:50:58;;;;;;;8.17;2.80;;;;;;;7.46;100.00;101056.69;5293846;28;20039;-68
2022/12/28 09:53:32;;;;;;;5.73;2.60;;;;;;;7.54;100.00;101064.19;5290774;28;20394;-68
2022/12/28 09:56:28;;;;;;;5.35;2.78;;;;;;;7.56;100.00;101057.13;5293258;28;20031;-68
2022/12/28 09:59:02;;;;;;;4.63;2.27;;;;;;;7.54;100.00;101059.81;5291003;28;20449;-68
2022/12/28 10:01:37;;;;;;;3.78;2.30;;;;;;;7.56;100.00;101057.13;5292454;28;20067;-68
2022/12/28 10:04:11;;;;;;;6.50;3.00;;;;;;;7.51;100.00;101052.13;5291638;28;20402;-68
2022/12/28 10:06:43;;;;;;;3.30;2.07;;;;;;;7.63;100.00;101061.16;5292515;28;20121;-68
2022/12/28 10:09:25;;;;;;;5.60;2.50;;;;;;;7.61;100.00;101052.59;5291271;28;20044;-68
2022/12/28 10:11:59;;;;;;;5.07;2.47;;;;;;;7.58;100.00;101042.28;5292086;28;20039;-69
2022/12/28 10:14:34;;;;;;;3.22;2.33;;;;;;;7.62;100.00;101046.44;5292423;28;20459;-69
2022/12/28 10:17:06;;;;;;;;;;;;;;;7.70;100.00;101049.56;5293293;28;20186;-68
2022/12/28 10:19:38;;;;;;;6.23;2.53;;;;;;;7.66;100.00;101035.00;5292678;28;20007;-68
2022/12/28 10:22:14;;;;;;;4.97;2.20;;;;;;;7.66;100.00;101029.78;5291502;28;20654;-68
2022/12/28 10:24:46;;;;;;;3.27;2.10;;;;;;;7.65;100.00;101041.09;5292670;28;20047;-68
2022/12/28 10:27:28;;;;;;;3.77;2.30;;;;;;;7.66;100.00;101032.38;5288632;28;20654;-69
2022/12/28 10:30:01;;;;;;;4.90;2.33;;;;;;;7.70;100.00;101031.31;5278425;28;20601;-69
2022/12/28 10:32:54;;;;;;;3.17;2.10;;;;;;;7.69;100.00;101031.38;5270967;28;20064;-69
2022/12/28 10:35:27;;;;;;;4.87;2.40;;;;;;;7.70;100.00;101033.06;5277270;28;20040;-69
2022/12/28 10:38:04;;;;;;;3.37;2.20;;;;;;;7.72;100.00;101021.66;5276818;28;20048;-69
2022/12/28 10:40:38;;;;;;;4.17;2.40;;;;;;;7.73;100.00;101022.53;5278809;28;20063;-69
2022/12/28 10:43:18;;;;;;;5.10;2.25;;;;;;;7.73;100.00;101023.34;5277420;28;20121;-69
2022/12/28 10:45:50;;;;;;;7.30;2.87;;;;;;;7.75;100.00;101018.91;5277464;28;20029;-69
2022/12/28 10:48:27;;;;;;;6.77;3.00;;;;;;;7.73;100.00;101020.72;5278107;28;20040;-69
2022/12/28 10:51:20;;;;;;;5.00;2.70;;;;;;;7.77;100.00;101012.81;5278562;28;20028;-69
2022/12/28 10:53:54;;;;;;;5.37;2.40;;;;;;;7.73;100.00;101012.91;5277050;28;20107;-69
2022/12/28 10:56:31;;;;;;;5.68;2.78;;;;;;;7.81;100.00;101009.13;5278542;28;20378;-69
2022/12/28 10:59:08;;;;;;;6.77;2.50;;;;;;;7.80;100.00;101010.88;5277926;28;20025;-69
2022/12/28 11:01:41;;;;;;;5.80;2.83;;;;;;;7.80;100.00;101017.88;5278243;28;20097;-70
2022/12/28 11:04:19;;;;;;;5.97;2.93;;;;;;;7.79;100.00;101010.94;5277851;28;20756;-70
2022/12/28 11:06:54;;;;;;;4.43;2.87;;;;;;;7.68;100.00;100973.16;5276798;28;20070;-72
2022/12/28 11:09:28;;;;;;;7.37;2.67;;;;;;;7.79;100.00;101005.72;5273895;28;20051;-69
2022/12/28 11:12:32;;;;;;;6.18;3.30;;;;;;;7.83;100.00;101000.31;5277262;28;20548;-69
2022/12/28 11:15:03;;;;;;;6.73;3.30;;;;;;;7.84;100.00;101008.97;5273117;28;20112;-69
2022/12/28 11:17:36;;;;;;;4.77;2.43;;;;;;;7.85;100.00;101000.25;5277404;28;20637;-68
2022/12/28 11:20:19;;;;;;;7.30;2.87;;;;;;;7.85;100.00;100995.03;5277164;28;20375;-80
2022/12/28 11:22:52;;;;;;;5.60;2.47;;;;;;;7.79;100.00;100987.47;5276308;28;20480;-70
2022/12/28 11:25:29;;;;;;;5.17;3.17;;;;;;;7.84;100.00;100983.75;5277220;28;20467;-70
2022/12/28 11:28:11;;;;;;;8.37;2.63;;;;;;;7.91;100.00;100999.09;5276832;28;20127;-69
2022/12/28 11:30:43;;;;;;;6.53;2.50;;;;;;;7.87;100.00;100983.59;5272171;28;20123;-69
2022/12/28 11:33:33;;;;;;;5.73;2.80;;;;;;;7.90;100.00;100971.34;5264609;28;20661;-69
2022/12/28 11:36:11;;;;;;;5.33;2.73;;;;;;;7.85;100.00;100967.19;5266078;28;20086;-70
2022/12/28 11:38:44;;;;;;;5.67;2.53;;;;;;;7.89;100.00;100965.28;5263974;28;20039;-70
2022/12/28 11:41:27;;;;;;;6.07;3.10;;;;;;;7.90;100.00;100956.56;5264801;28;20464;-71
2022/12/28 11:44:08;;;;;;;5.77;2.93;;;;;;;7.89;100.00;100957.44;5266068;28;20044;-70
2022/12/28 11:46:40;;;;;;;5.17;2.60;;;;;;;7.94;100.00;100952.88;5266730;28;20039;-69
2022/12/28 11:49:20;;;;;;;5.13;2.73;;;;;;;7.94;100.00;100960.69;5265537;28;20036;-69
2022/12/28 11:52:43;;;;;;;6.20;3.03;;;;;;;7.98;100.00;100938.78;5267715;28;20029;-69
2022/12/28 11:56:00;;;;;;;6.90;2.67;;;;;;;7.98;100.00;100944.00;5263188;28;20121;-70
2022/12/28 11:58:43;;;;;;;10.00;2.50;;;;;;;7.99;100.00;100924.81;5202482;28;20048;-69
2022/12/28 12:01:27;;;;;;;6.47;2.40;;;;;;;7.96;100.00;100922.34;5203309;28;20806;-69
2022/12/28 12:03:58;;;;;;;4.53;2.03;;;;;;;7.97;100.00;100920.59;5252926;28;20105;-68
2022/12/28 12:06:42;;;;;;;5.87;2.20;;;;;;;7.98;100.00;100928.34;5267644;28;20024;-69
2022/12/28 12:09:28;;;;;;;5.60;2.10;;;;;;;7.96;100.00;100924.97;5266372;28;20769;-69
2022/12/28 12:12:05;;;;;;;9.00;3.33;;;;;;;7.87;100.00;100900.16;5267286;28;20043;-69
2022/12/28 12:14:58;;;;;;;4.83;2.10;;;;;;;7.97;100.00;100900.59;5265169;28;20025;-69
2022/12/28 12:17:48;;;;;;;5.40;2.30;;;;;;;7.98;100.00;100910.09;5267202;28;20048;-69
2022/12/28 12:20:38;;;;;;;7.17;2.87;;;;;;;8.00;100.00;100904.78;5266388;28;20114;-70
2022/12/28 12:23:30;;;;;;;5.37;2.50;;;;;;;7.96;100.00;100901.47;5265473;28;20037;-67
2022/12/28 12:26:36;;;;;;;4.00;2.00;;;;;;;8.05;100.00;100894.13;5267342;28;20141;-68
2022/12/28 12:29:23;;;;;;;8.77;2.93;;;;;;;8.01;100.00;100890.00;5266873;28;20044;-70
2022/12/28 12:32:22;;;;;;;7.43;2.17;;;;;;;8.06;100.00;100888.00;5266350;28;20043;-68
2022/12/28 12:35:02;;;;;;;4.90;2.60;;;;;;;7.98;100.00;100877.94;5266344;28;20048;-68
2022/12/28 12:37:54;;;;;;;7.80;2.60;;;;;;;8.03;100.00;100875.13;5266398;28;20809;-69
2022/12/28 12:40:46;;;;;;;9.20;3.03;;;;;;;8.06;100.00;100864.53;5267543;28;20174;-68
2022/12/28 12:43:44;;;;;;;4.97;1.83;;;;;;;8.08;100.00;100862.69;5267100;28;20036;-69
2022/12/28 12:46:34;;;;;;;5.30;2.30;;;;;;;8.07;100.00;100858.38;5266676;28;20847;-69
2022/12/28 12:49:14;;;;;;;6.27;2.67;;;;;;;8.09;100.00;100853.94;5266411;28;20090;-69
2022/12/28 12:52:25;;;;;;;7.47;2.70;;;;;;;8.09;100.00;100840.91;5266667;28;20029;-70
2022/12/28 12:55:08;;;;;;;5.33;2.07;;;;;;;8.09;100.00;100844.34;5265149;28;20482;-68
2022/12/28 12:57:52;;;;;;;5.30;2.53;;;;;;;8.09;100.00;100831.31;5264903;28;20155;-69
2022/12/28 13:00:45;;;;;;;6.30;2.30;;;;;;;8.12;100.00;100830.31;5266301;28;20111;-70
2022/12/28 13:03:37;;;;;;;8.43;2.60;;;;;;;8.15;100.00;100816.28;5259655;28;20071;-69
2022/12/28 13:06:13;;;;;;;10.77;2.60;;;;;;;8.14;100.00;100815.44;5266077;28;20106;-69
2022/12/28 13:08:52;;;;;;;9.63;2.93;;;;;;;8.10;100.00;100806.06;5265984;28;20044;-68
2022/12/28 13:11:24;;;;;;;5.87;2.57;;;;;;;8.12;100.00;100804.22;5265835;28;20064;-69
2022/12/28 13:13:56;;;;;;;6.77;2.37;;;;;;;8.12;100.00;100799.00;5266864;28;20034;-69
2022/12/28 13:16:30;;;;;;;6.50;2.27;;;;;;;8.11;100.00;100786.88;5266783;28;20060;-71
2022/12/28 13:19:04;;;;;;;10.05;2.55;;;;;;;8.20;100.00;100799.44;5266070;28;20033;-71
2022/12/28 13:21:43;;;;;;;;;;;;;;;8.28;100.00;100798.22;5268442;28;20192;-69
2022/12/28 13:24:19;;;;;;;5.53;2.03;;;;;;;8.20;100.00;100789.00;5263552;28;19931;-70
2022/12/28 13:26:51;;;;;;;10.10;2.60;;;;;;;8.20;100.00;100775.97;5265360;28;20025;-71
2022/12/28 13:29:25;;;;;;;10.10;2.70;;;;;;;8.19;100.00;100768.22;5265418;28;20626;-71
2022/12/28 13:31:57;;;;;;;6.55;1.95;;;;;;;8.12;100.00;100746.84;5265387;28;20036;-70
2022/12/28 13:34:33;;;;;;;11.93;2.57;;;;;;;8.21;100.00;100743.75;5268818;28;20028;-71
2022/12/28 13:37:16;;;;;;;6.47;2.43;;;;;;;8.23;100.00;100736.69;5273196;28;20037;-71
2022/12/28 13:39:47;;;;;;;7.17;2.67;;;;;;;8.19;100.00;100740.38;5280039;28;20085;-69
2022/12/28 13:42:27;;;;;;;6.40;2.40;;;;;;;8.18;100.00;100741.31;5275637;28;20024;-69
2022/12/28 13:45:02;;;;;;;10.40;3.00;;;;;;;8.21;100.00;100732.47;5274937;28;20558;-70
2022/12/28 13:47:42;;;;;;;9.60;2.50;;;;;;;8.20;100.00;100726.41;5273496;28;20029;-69
2022/12/28 13:50:16;;;;;;;11.57;2.70;;;;;;;8.26;100.00;100729.63;5275178;28;20029;-70
2022/12/28 13:53:10;;;;;;;7.95;2.40;;;;;;;8.27;100.00;100720.88;5273909;28;20029;-72
2022/12/28 13:55:47;;;;;;;6.73;3.00;;;;;;;8.28;100.00;100694.72;5273565;28;20055;-71
2022/12/28 13:58:25;;;;;;;8.43;2.20;;;;;;;8.27;100.00;100681.75;5274798;28;20455;-70
2022/12/28 14:00:59;;;;;;;7.90;2.63;;;;;;;8.26;100.00;100669.59;5274399;28;20020;-70
2022/12/28 14:03:32;;;;;;;11.82;3.58;;;;;;;8.29;100.00;100670.28;5275592;28;20062;-70
2022/12/28 14:06:03;;;;;;;5.00;2.10;;;;;;;8.29;100.00;100667.69;5267948;28;20033;-69
2022/12/28 14:08:37;;;;;;;5.83;2.57;;;;;;;8.32;100.00;100666.69;5278176;28;20430;-70
2022/12/28 14:11:09;;;;;;;10.30;4.03;;;;;;;8.32;100.00;100664.06;5277777;28;20118;-69
2022/12/28 14:13:40;;;;;;;7.20;3.13;;;;;;;8.28;100.00;100647.75;5278255;28;20028;-70
2022/12/28 14:16:12;;;;;;;9.43;2.40;;;;;;;8.30;100.00;100643.28;5277631;28;20044;-71
2022/12/28 14:18:44;;;;;;;5.50;2.13;;;;;;;8.38;100.00;100640.25;5278069;28;20181;-71
2022/12/28 14:21:15;;;;;;;8.40;2.37;;;;;;;8.37;100.00;100645.56;5278092;28;20099;-69
2022/12/28 14:23:47;;;;;;;9.90;2.90;;;;;;;8.36;100.00;100634.25;5277128;28;20522;-70
2022/12/28 14:26:21;;;;;;;5.13;2.37;;;;;;;8.39;100.00;100646.31;5278109;28;20024;-68
2022/12/28 14:28:54;;;;;;;9.38;2.67;;;;;;;8.34;100.00;100621.31;5276631;28;20029;-71
2022/12/28 14:31:29;;;;;;;6.40;2.43;;;;;;;8.39;100.00;100626.28;5272987;28;20023;-70
2022/12/28 14:34:03;;;;;;;7.10;2.50;;;;;;;8.42;100.00;100626.13;5266179;28;20367;-77
2022/12/28 14:36:41;;;;;;;9.55;2.83;;;;;;;8.43;100.00;100624.38;5267168;28;20036;-75
2022/12/28 14:39:36;;;;;;;8.27;2.50;;;;;;;8.48;100.00;100617.94;5264764;28;20584;-77
2022/12/28 14:42:19;;;;;;;9.35;2.83;;;;;;;8.50;100.00;100615.25;5266994;28;20035;-75
2022/12/28 14:44:50;;;;;;;7.53;1.83;;;;;;;8.38;100.00;100595.88;5262044;28;20028;-77
2022/12/28 14:47:44;;;;;;;7.07;1.83;;;;;;;8.50;100.00;100601.38;5266639;28;20088;-77
2022/12/28 14:50:28;;;;;;;7.93;2.60;;;;;;;8.50;100.00;100599.59;5265602;28;20058;-73
2022/12/28 14:53:06;;;;;;;8.13;2.60;;;;;;;8.48;100.00;100586.63;5264860;28;20039;-75
2022/12/28 14:55:56;;;;;;;8.13;2.43;;;;;;;8.51;100.00;100590.00;5266190;28;20501;-73
2022/12/28 14:58:50;;;;;;;7.33;2.03;;;;;;;8.50;100.00;100583.09;5265299;28;20029;-73
2022/12/28 15:01:22;;;;;;;9.33;2.80;;;;;;;8.51;100.00;100584.78;5265876;28;20028;-70
2022/12/28 15:03:55;;;;;;;8.33;2.30;;;;;;;8.51;100.00;100582.16;5266583;28;20041;-73
2022/12/28 15:06:29;;;;;;;10.93;2.67;;;;;;;8.53;100.00;100575.09;5264686;28;20497;-75
2022/12/28 15:09:05;;;;;;;5.47;2.00;;;;;;;8.53;100.00;100569.88;5261840;28;20028;-76
2022/12/28 15:11:36;;;;;;;5.90;2.33;;;;;;;8.44;100.00;100548.59;5263556;28;20050;-72
2022/12/28 15:14:07;;;;;;;6.20;2.20;;;;;;;8.51;100.00;100553.47;5265084;28;20078;-71
2022/12/28 15:16:38;;;;;;;6.67;2.50;;;;;;;8.51;100.00;100545.63;5264921;28;20067;-70
2022/12/28 15:19:10;;;;;;;7.30;1.97;;;;;;;8.47;100.00;100543.19;5264565;28;20495;-79
2022/12/28 15:21:41;;;;;;;7.00;2.50;;;;;;;8.55;100.00;100544.53;5264398;28;20044;-74
2022/12/28 15:24:12;;;;;;;8.20;3.00;;;;;;;8.51;100.00;100532.56;5265699;28;20028;-72
2022/12/28 15:26:44;;;;;;;8.93;2.63;;;;;;;8.50;100.00;100528.28;5265387;28;20154;-73
2022/12/28 15:29:15;;;;;;;7.80;1.90;;;;;;;8.55;100.00;100544.53;5269845;28;20032;-76
2022/12/28 15:31:47;;;;;;;6.53;2.20;;;;;;;8.50;100.00;100525.69;5274765;28;20095;-77
2022/12/28 15:34:18;;;;;;;4.60;1.73;;;;;;;8.56;100.00;100526.22;5275181;28;20067;-72
2022/12/28 15:36:51;;;;;;;5.30;2.00;;;;;;;8.50;100.00;100518.69;5273481;28;20036;-72
2022/12/28 15:39:23;;;;;;;7.00;1.90;;;;;;;8.57;100.00;100521.84;5275864;28;20017;-71
2022/12/28 15:41:55;;;;;;;8.00;2.73;;;;;;;8.56;100.00;100517.53;5275051;28;20478;-76
2022/12/28 15:44:26;;;;;;;6.70;2.60;;;;;;;8.53;100.00;100500.25;5277763;28;20142;-70
2022/12/28 15:46:57;;;;;;;13.87;3.13;;;;;;;8.55;100.00;100502.78;5274581;28;20025;-78
2022/12/28 15:49:28;;;;;;;7.13;3.20;;;;;;;8.44;100.00;100478.13;5275424;28;20035;-79
2022/12/28 15:52:00;;;;;;;8.27;2.60;;;;;;;8.56;100.00;100509.69;5274084;28;20606;-79
2022/12/28 15:54:31;;;;;;;3.70;1.97;;;;;;;8.47;100.00;100482.31;5274515;28;20398;-81
2022/12/28 15:57:02;;;;;;;8.77;2.37;;;;;;;8.55;100.00;100497.56;5275629;28;20035;-73
2022/12/28 15:59:34;;;;;;;7.43;2.03;;;;;;;8.51;100.00;100480.38;5274918;28;20104;-73
2022/12/28 16:02:05;;;;;;;5.70;2.27;;;;;;;8.54;100.00;100485.41;5274509;28;20089;-72
2022/12/28 16:04:36;;;;;;;5.17;2.60;;;;;;;8.36;100.00;100462.03;5273612;28;20043;-76
2022/12/28 16:07:08;;;;;;;6.43;2.27;;;;;;;8.48;100.00;100482.22;5272609;28;20033;-71
2022/12/28 16:09:39;;;;;;;7.80;4.07;;;;;;;8.43;100.00;100473.00;5275000;28;20031;-74
2022/12/28 16:12:15;;;;;;;9.17;2.40;;;;;;;8.45;100.00;100471.13;5274954;28;20036;-74
2022/12/28 16:14:47;;;;;;;6.33;2.60;;;;;;;8.45;100.00;100474.56;5274132;28;20029;-83
2022/12/28 16:17:18;;;;;;;6.63;2.97;;;;;;;8.48;100.00;100482.22;5273589;28;20066;-76
2022/12/28 16:19:49;;;;;;;5.93;2.00;;;;;;;8.41;100.00;100462.63;5275008;28;20035;-75
2022/12/28 16:22:21;;;;;;;6.10;1.97;;;;;;;8.42;100.00;100456.50;5273931;28;20017;-73
2022/12/28 16:24:52;;;;;;;6.77;2.23;;;;;;;8.41;100.00;100446.13;5274424;28;20031;-72
2022/12/28 16:27:23;;;;;;;9.00;3.37;;;;;;;8.35;100.00;100439.50;5273765;28;20070;-74
2022/12/28 16:29:54;;;;;;;8.53;3.97;;;;;;;8.35;100.00;100432.50;5273125;28;20578;-70
2022/12/28 16:32:26;;;;;;;4.27;1.93;;;;;;;8.36;100.00;100438.56;5274620;28;20020;-71
2022/12/28 16:34:58;;;;;;;6.00;2.07;;;;;;;8.37;100.00;100432.44;5274906;28;20031;-73
2022/12/28 16:37:29;;;;;;;7.47;3.27;;;;;;;8.33;100.00;100430.91;5273977;28;20029;-71
2022/12/28 16:40:00;;;;;;;6.80;2.37;;;;;;;8.31;100.00;100415.34;5275591;28;20387;-70
2022/12/28 16:42:32;;;;;;;5.93;2.40;;;;;;;8.30;100.00;100421.50;5273853;28;20047;-71
2022/12/28 16:45:03;;;;;;;11.00;3.13;;;;;;;8.28;100.00;100404.25;5274653;28;20086;-71
2022/12/28 16:47:35;;;;;;;8.17;2.30;;;;;;;8.33;100.00;100402.22;5275178;28;20023;-74
2022/12/28 16:50:06;;;;;;;5.10;2.07;;;;;;;8.25;100.00;100387.00;5275167;28;20523;-72
2022/12/28 16:52:38;;;;;;;4.97;2.97;;;;;;;8.31;100.00;100398.84;5272055;28;20025;-71
2022/12/28 16:55:09;;;;;;;5.13;2.60;;;;;;;8.29;100.00;100393.72;5274699;28;20041;-70
2022/12/28 16:57:41;;;;;;;3.43;2.07;;;;;;;8.29;100.00;100383.28;5274300;28;20035;-72
2022/12/28 17:00:12;;;;;;;7.60;2.83;;;;;;;8.29;100.00;100398.09;5273435;28;20036;-72
2022/12/28 17:02:44;;;;;;;3.87;1.70;;;;;;;8.32;100.00;100384.88;5273473;28;20070;-71
2022/12/28 17:05:15;;;;;;;7.80;3.03;;;;;;;8.28;100.00;100381.59;5276734;28;20544;-72
2022/12/28 17:07:47;;;;;;;8.37;3.00;;;;;;;8.28;100.00;100371.16;5278985;28;20032;-73
2022/12/28 17:10:18;;;;;;;5.30;2.10;;;;;;;8.26;100.00;100372.16;5272862;28;20032;-73
2022/12/28 17:12:49;;;;;;;4.90;2.07;;;;;;;8.20;100.00;100353.34;5274163;28;20471;-73
2022/12/28 17:15:22;;;;;;;4.73;2.27;;;;;;;8.25;100.00;100354.84;5274811;28;20158;-71
2022/12/28 17:17:53;;;;;;;10.20;3.97;;;;;;;8.20;100.00;100349.91;5273977;28;20067;-74
2022/12/28 17:20:26;;;;;;;4.50;2.20;;;;;;;8.26;100.00;100356.53;5274065;28;20439;-72
2022/12/28 17:22:58;;;;;;;7.17;2.20;;;;;;;8.17;100.00;100337.06;5273027;28;20067;-72
2022/12/28 17:25:31;;;;;;;10.93;3.30;;;;;;;8.16;100.00;100348.41;5273716;28;20049;-77
2022/12/28 17:28:03;;;;;;;5.87;2.37;;;;;;;8.08;100.00;100322.78;5273638;28;20025;-74
2022/12/28 17:30:34;;;;;;;6.73;3.20;;;;;;;8.11;100.00;100314.75;5274369;28;20032;-79
2022/12/28 17:33:05;;;;;;;3.27;1.80;;;;;;;8.16;100.00;100319.69;5270000;28;20017;-79
2022/12/28 17:35:37;;;;;;;4.40;2.07;;;;;;;8.20;100.00;100332.47;5273528;28;20033;-72
2022/12/28 17:38:08;;;;;;;6.43;2.33;;;;;;;8.17;100.00;100324.00;5275567;28;20036;-74
2022/12/28 17:40:40;;;;;;;6.93;2.93;;;;;;;8.16;100.00;100317.94;5278297;28;20028;-74
2022/12/28 17:43:12;;;;;;;7.47;2.00;;;;;;;8.13;100.00;100323.34;5277887;28;20112;-73
2022/12/28 17:45:43;;;;;;;6.00;2.13;;;;;;;8.12;100.00;100308.59;5278659;28;20103;-72
2022/12/28 17:48:15;;;;;;;4.80;2.20;;;;;;;8.10;100.00;100302.63;5278284;28;20029;-71
2022/12/28 17:50:46;;;;;;;4.77;2.50;;;;;;;8.10;100.00;100294.81;5278597;28;20025;-72
2022/12/28 17:53:17;;;;;;;4.37;1.90;;;;;;;8.09;100.00;100298.34;5277417;28;20032;-72
2022/12/28 17:55:49;;;;;;;4.80;1.90;;;;;;;8.06;100.00;100286.34;5277999;28;20050;-71
2022/12/28 17:58:20;;;;;;;4.70;1.93;;;;;;;8.05;100.00;100284.66;5278329;28;20032;-71
2022/12/28 18:00:53;;;;;;;4.23;2.00;;;;;;;8.05;100.00;100292.47;5276968;28;20028;-71
2022/12/28 18:03:25;;;;;;;4.53;1.63;;;;;;;8.08;100.00;100286.25;5278811;28;20016;-73
2022/12/28 18:05:57;;;;;;;4.63;2.13;;;;;;;8.03;100.00;100280.47;5278136;28;20040;-74
2022/12/28 18:08:28;;;;;;;4.40;1.70;;;;;;;8.07;100.00;100297.59;5277455;28;20471;-73
2022/12/28 18:10:59;;;;;;;4.67;1.87;;;;;;;7.90;100.00;100260.31;5278012;28;20490;-71
2022/12/28 18:13:31;;;;;;;4.87;2.07;;;;;;;7.96;100.00;100270.38;5277720;28;20490;-73
2022/12/28 18:16:03;;;;;;;5.27;2.27;;;;;;;7.97;100.00;100266.84;5276785;28;20056;-72
2022/12/28 18:18:35;;;;;;;4.33;2.33;;;;;;;8.01;100.00;100269.28;5277123;28;20032;-71
2022/12/28 18:21:09;;;;;;;6.20;1.97;;;;;;;7.95;100.00;100266.09;5277229;28;20048;-73
2022/12/28 18:23:46;;;;;;;4.20;1.97;;;;;;;7.95;100.00;100268.72;5278671;28;20021;-72
2022/12/28 18:26:24;;;;;;;4.63;2.13;;;;;;;7.94;100.00;100261.81;5278411;28;20025;-73
2022/12/28 18:28:56;;;;;;;4.93;2.30;;;;;;;7.96;100.00;100262.56;5277036;28;20029;-73
2022/12/28 18:31:27;;;;;;;5.87;2.40;;;;;;;7.86;100.00;100251.84;5277625;28;20441;-72
2022/12/28 18:34:01;;;;;;;5.17;2.33;;;;;;;7.93;100.00;100262.75;5277448;28;20107;-73
2022/12/28 18:36:32;;;;;;;4.50;2.13;;;;;;;7.95;100.00;100260.88;5276398;28;20044;-73
2022/12/28 18:39:04;;;;;;;5.07;2.37;;;;;;;7.96;100.00;100241.69;5277524;28;20283;-73
2022/12/28 18:41:35;;;;;;;2.97;1.77;;;;;;;7.85;100.00;100237.09;5275884;28;20037;-71
2022/12/28 18:44:06;;;;;;;4.63;2.30;;;;;;;7.93;100.00;100252.31;5276786;28;20035;-71
2022/12/28 18:46:38;;;;;;;4.70;2.10;;;;;;;7.97;100.00;100248.59;5276829;28;20411;-75
2022/12/28 18:49:09;;;;;;;6.33;2.83;;;;;;;8.05;100.00;100242.94;5275610;28;20575;-75
2022/12/28 18:51:40;;;;;;;4.00;2.30;;;;;;;8.02;100.00;100237.03;5274851;28;20123;-73
2022/12/28 18:54:12;;;;;;;7.50;2.73;;;;;;;7.99;100.00;100238.91;5277655;28;20020;-74
2022/12/28 18:56:43;;;;;;;5.33;2.63;;;;;;;8.04;100.00;100236.03;5275938;28;20052;-76
2022/12/28 18:59:14;;;;;;;5.40;2.40;;;;;;;8.01;100.00;100232.78;5277471;28;20484;-73
2022/12/28 19:01:47;;;;;;;5.23;2.63;;;;;;;8.00;100.00;100221.50;5276994;28;20031;-74
2022/12/28 19:04:18;;;;;;;5.97;2.40;;;;;;;8.06;100.00;100230.72;5276709;28;20036;-71
2022/12/28 19:06:50;;;;;;;6.00;2.77;;;;;;;7.98;100.00;100224.19;5273604;28;20483;-72
2022/12/28 19:09:21;;;;;;;3.80;2.10;;;;;;;7.97;100.00;100216.47;5278759;28;20024;-75
2022/12/28 19:11:52;;;;;;;6.37;2.70;;;;;;;7.98;100.00;100224.19;5267760;28;20094;-71
2022/12/28 19:14:24;;;;;;;4.93;2.20;;;;;;;8.03;100.00;100228.31;5270998;28;20040;-72
2022/12/28 19:16:55;;;;;;;6.97;2.40;;;;;;;8.04;100.00;100211.72;5274995;28;20073;-73
2022/12/28 19:19:26;;;;;;;3.97;2.23;;;;;;;8.07;100.00;100212.38;5276562;28;20036;-74
2022/12/28 19:21:58;;;;;;;4.40;2.10;;;;;;;8.07;100.00;100206.31;5275424;28;20085;-75
2022/12/28 19:24:29;;;;;;;5.33;2.47;;;;;;;8.06;100.00;100202.03;5270147;28;20036;-72
2022/12/28 19:27:00;;;;;;;2.53;2.03;;;;;;;8.18;100.00;100224.78;5265426;28;20036;-74
2022/12/28 19:29:31;;;;;;;3.37;2.17;;;;;;;8.06;100.00;100199.44;5276054;28;20033;-73
2022/12/28 19:32:03;;;;;;;3.30;2.53;;;;;;;8.16;100.00;100218.81;5275847;28;20048;-72
2022/12/28 19:34:35;;;;;;;3.83;2.90;;;;;;;8.14;100.00;100202.41;5275471;28;20382;-76
2022/12/28 19:37:06;;;;;;;4.40;2.10;;;;;;;8.15;100.00;100211.09;5273574;28;20129;-77
2022/12/28 19:39:37;;;;;;;4.80;2.57;;;;;;;8.21;100.00;100203.72;5274975;28;20028;-78
2022/12/28 19:42:09;;;;;;;3.73;2.73;;;;;;;8.21;100.00;100213.31;5273807;28;20063;-72
2022/12/28 19:44:40;;;;;;;3.10;2.40;;;;;;;8.23;100.00;100207.09;5274858;28;20060;-75
2022/12/28 19:47:11;;;;;;;2.97;2.13;;;;;;;8.18;100.00;100198.72;5276266;28;20024;-74
2022/12/28 19:49:42;;;;;;;3.37;2.33;;;;;;;8.23;100.00;100204.47;5275988;28;20604;-71
2022/12/28 19:52:14;;;;;;;2.53;2.10;;;;;;;8.24;100.00;100202.69;5273843;28;20028;-69
2022/12/28 19:54:45;;;;;;;5.53;2.50;;;;;;;8.23;100.00;100201.88;5274436;28;20037;-71
2022/12/28 19:57:16;;;;;;;4.63;2.97;;;;;;;8.27;100.00;100201.69;5275828;28;20033;-72
2022/12/28 19:59:48;;;;;;;3.77;2.90;;;;;;;8.29;100.00;100197.22;5273630;28;20032;-72
2022/12/28 20:02:19;;;;;;;4.27;2.17;;;;;;;8.28;100.00;100191.16;5274478;28;20054;-71
2022/12/28 20:04:50;;;;;;;3.37;2.43;;;;;;;8.28;100.00;100179.88;5275706;28;20039;-71
2022/12/28 20:07:21;;;;;;;4.63;2.60;;;;;;;8.31;100.00;100185.75;5275190;28;20028;-69
2022/12/28 20:09:53;;;;;;;3.53;2.27;;;;;;;8.33;100.00;100198.69;5274963;28;20028;-74
2022/12/28 20:12:24;;;;;;;4.30;2.50;;;;;;;8.34;100.00;100179.50;5275752;28;20090;-74
2022/12/28 20:14:55;;;;;;;2.87;2.50;;;;;;;8.38;100.00;100180.97;5274642;28;20025;-72
2022/12/28 20:17:28;;;;;;;4.17;2.37;;;;;;;8.36;100.00;100185.44;5276643;28;20044;-72
2022/12/28 20:19:59;;;;;;;3.80;2.37;;;;;;;8.41;100.00;100187.78;5274148;28;20112;-71
2022/12/28 20:22:31;;;;;;;4.47;2.47;;;;;;;8.38;100.00;100177.56;5275015;28;20135;-70
2022/12/28 20:25:02;;;;;;;3.70;2.37;;;;;;;8.40;100.00;100175.66;5275892;28;20495;-74
2022/12/28 20:27:34;;;;;;;3.50;2.60;;;;;;;8.44;100.00;100162.34;5275674;28;20028;-73
2022/12/28 20:30:05;;;;;;;3.07;2.07;;;;;;;8.50;100.00;100170.72;5275242;28;20052;-76
2022/12/28 20:32:37;;;;;;;3.57;2.47;;;;;;;8.32;100.00;100150.91;5273547;28;20035;-74
2022/12/28 20:35:08;;;;;;;3.43;2.67;;;;;;;8.53;100.00;100170.53;5275313;28;20036;-74
2022/12/28 20:37:39;;;;;;;2.87;2.30;;;;;;;8.53;100.00;100174.00;5273036;28;20032;-76
2022/12/28 20:40:11;;;;;;;2.43;2.13;;;;;;;8.50;100.00;100165.53;5274663;28;20550;-74
2022/12/28 20:45:33;;;;;;;4.07;2.63;;;;;;;8.56;100.00;100160.78;5275366;28;20040;-76
2022/12/28 20:48:05;;;;;;;4.23;2.40;;;;;;;8.63;100.00;100168.22;5275324;28;20025;-83
2022/12/28 20:50:36;;;;;;;4.17;2.77;;;;;;;8.62;100.00;100162.19;5274560;28;20488;-81
2022/12/28 20:53:07;;;;;;;2.80;2.33;;;;;;;8.60;100.00;100153.59;5271537;28;20673;-74
2022/12/28 20:55:39;;;;;;;4.20;2.73;;;;;;;8.49;100.00;100138.56;5274858;28;20103;-79
2022/12/28 20:58:10;;;;;;;6.33;2.73;;;;;;;8.64;100.00;100162.91;5275094;28;20032;-82
2022/12/28 21:00:41;;;;;;;3.97;2.10;;;;;;;8.64;100.00;100151.63;5273083;28;20120;-85
2022/12/28 21:03:13;;;;;;;2.90;2.10;;;;;;;8.62;100.00;100154.34;5275031;28;20436;-75
2022/12/28 21:05:44;;;;;;;2.60;2.23;;;;;;;8.66;100.00;100154.97;5273154;28;20041;-75
2022/12/28 21:08:15;;;;;;;3.37;2.30;;;;;;;8.63;100.00;100139.50;5274894;28;20079;-79
2022/12/28 21:10:47;;;;;;;3.27;2.63;;;;;;;8.73;100.00;100158.88;5277868;28;20028;-75
2022/12/28 21:13:18;;;;;;;5.50;2.87;;;;;;;8.74;100.00;100147.50;5274015;28;20111;-69
2022/12/28 21:15:49;;;;;;;3.57;2.70;;;;;;;8.78;100.00;100145.53;5275337;28;20537;-76
2022/12/28 21:18:21;;;;;;;2.87;2.50;;;;;;;8.83;100.00;100151.31;5278315;28;20094;-82
